createdAt,value
2023-01-26T00:01:46.825Z,5.38
2023-01-26T00:04:14.577Z,4.65
2023-01-26T00:06:42.480Z,5.10
2023-01-26T00:09:17.070Z,4.82
2023-01-26T00:11:45.114Z,5.78
2023-01-26T00:14:12.685Z,4.80
2023-01-26T00:16:40.980Z,5.20
2023-01-26T00:19:08.605Z,5.13
2023-01-26T00:21:36.498Z,4.35
2023-01-26T00:24:04.811Z,4.85
2023-01-26T00:26:32.873Z,5.40
2023-01-26T00:29:01.565Z,4.90
2023-01-26T00:31:29.631Z,8.02
2023-01-26T00:33:57.684Z,4.82
2023-01-26T00:36:26.015Z,4.03
2023-01-26T00:38:53.584Z,4.60
2023-01-26T00:41:39.977Z,6.03
2023-01-26T00:44:07.741Z,6.68
2023-01-26T00:46:36.069Z,4.32
2023-01-26T00:49:03.630Z,3.75
2023-01-26T00:51:31.405Z,4.95
2023-01-26T00:53:59.121Z,7.15
2023-01-26T00:56:28.228Z,6.32
2023-01-26T00:58:56.036Z,3.67
2023-01-26T01:01:23.957Z,5.68
2023-01-26T01:03:52.229Z,7.35
2023-01-26T01:06:20.256Z,5.23
2023-01-26T01:08:47.866Z,3.63
2023-01-26T01:11:15.841Z,8.02
2023-01-26T01:13:43.543Z,5.78
2023-01-26T01:16:15.357Z,6.65
2023-01-26T01:18:43.429Z,6.80
2023-01-26T01:21:15.118Z,7.00
2023-01-26T01:23:43.910Z,6.38
2023-01-26T01:26:12.180Z,6.47
2023-01-26T01:28:40.678Z,7.20
2023-01-26T01:31:13.237Z,4.80
2023-01-26T01:33:42.181Z,9.48
2023-01-26T01:36:15.100Z,6.30
2023-01-26T01:38:44.296Z,7.65
2023-01-26T01:43:41.169Z,10.38
2023-01-26T01:46:35.190Z,6.20
2023-01-26T01:49:24.200Z,6.25
2023-01-26T01:54:44.951Z,7.18
2023-01-26T01:57:28.608Z,7.15
2023-01-26T02:00:09.393Z,10.10
2023-01-26T02:03:09.288Z,8.30
2023-01-26T02:05:51.224Z,4.43
2023-01-26T02:08:22.349Z,9.50
2023-01-26T02:10:55.770Z,4.85
2023-01-26T02:13:25.983Z,6.80
2023-01-26T02:15:54.695Z,9.20
2023-01-26T02:18:22.758Z,4.88
2023-01-26T02:21:00.689Z,7.68
2023-01-26T02:24:12.885Z,5.75
2023-01-26T02:26:40.719Z,6.28
2023-01-26T02:29:11.595Z,6.00
2023-01-26T02:31:43.754Z,9.10
2023-01-26T02:34:11.752Z,8.00
2023-01-26T02:36:39.599Z,6.25
2023-01-26T02:40:01.951Z,5.93
2023-01-26T02:42:38.706Z,3.95
2023-01-26T02:45:17.342Z,7.18
2023-01-26T02:47:46.787Z,4.05
2023-01-26T02:50:15.472Z,10.90
2023-01-26T02:52:44.835Z,5.78
2023-01-26T02:55:25.261Z,4.22
2023-01-26T02:57:59.479Z,6.03
2023-01-26T03:00:37.399Z,5.82
2023-01-26T03:03:26.751Z,6.05
2023-01-26T03:05:54.589Z,4.88
2023-01-26T03:08:22.141Z,6.80
2023-01-26T03:10:50.013Z,8.13
2023-01-26T03:13:18.660Z,7.18
2023-01-26T03:15:52.750Z,7.53
2023-01-26T03:18:42.029Z,10.13
2023-01-26T03:21:34.045Z,5.07
2023-01-26T03:24:20.891Z,10.57
2023-01-26T03:27:08.386Z,10.52
2023-01-26T03:29:36.500Z,8.07
2023-01-26T03:32:04.825Z,10.63
2023-01-26T03:34:33.522Z,7.25
2023-01-26T03:37:01.479Z,7.32
2023-01-26T03:39:59.553Z,6.32
2023-01-26T03:42:46.696Z,8.77
2023-01-26T03:45:33.431Z,8.95
2023-01-26T03:48:29.990Z,5.95
2023-01-26T03:51:17.007Z,7.00
2023-01-26T03:54:03.907Z,9.07
2023-01-26T03:56:34.630Z,4.63
2023-01-26T03:59:12.330Z,6.07
2023-01-26T04:02:04.509Z,4.75
2023-01-26T04:04:52.068Z,8.25
2023-01-26T04:07:41.987Z,8.23
2023-01-26T04:10:10.974Z,5.55
2023-01-26T04:12:38.817Z,5.35
2023-01-26T04:15:37.007Z,10.38
2023-01-26T04:18:27.406Z,5.05
2023-01-26T04:21:15.175Z,5.25
2023-01-26T04:23:44.858Z,6.55
2023-01-26T04:26:12.819Z,4.75
2023-01-26T04:28:41.238Z,4.90
2023-01-26T04:31:09.742Z,6.13
2023-01-26T04:33:38.583Z,3.45
2023-01-26T04:36:08.622Z,3.72
2023-01-26T04:38:39.839Z,7.97
2023-01-26T04:41:08.027Z,3.78
2023-01-26T04:43:42.577Z,5.32
2023-01-26T04:46:11.290Z,4.13
2023-01-26T04:48:40.946Z,5.80
2023-01-26T04:51:22.218Z,5.88
2023-01-26T04:53:51.253Z,4.00
2023-01-26T04:56:29.513Z,7.82
2023-01-26T04:59:06.375Z,4.57
2023-01-26T05:01:36.684Z,6.45
2023-01-26T05:04:07.932Z,4.25
2023-01-26T05:06:39.037Z,4.97
2023-01-26T05:09:06.555Z,5.78
2023-01-26T05:11:36.736Z,3.95
2023-01-26T05:14:19.271Z,3.80
2023-01-26T05:17:11.262Z,4.63
2023-01-26T05:20:05.373Z,8.13
2023-01-26T05:22:41.565Z,3.05
2023-01-26T05:25:29.281Z,2.65
2023-01-26T05:28:06.597Z,2.83
2023-01-26T05:30:34.365Z,5.65
2023-01-26T05:33:08.149Z,3.55
2023-01-26T05:35:36.237Z,4.13
2023-01-26T05:38:05.870Z,3.45
2023-01-26T05:40:34.738Z,5.97
2023-01-26T05:43:02.708Z,4.70
2023-01-26T05:45:48.768Z,4.32
2023-01-26T05:50:47.433Z,7.60
2023-01-26T05:53:18.193Z,4.80
2023-01-26T05:55:46.280Z,5.22
2023-01-26T05:58:14.736Z,7.97
2023-01-26T06:00:42.351Z,5.43
2023-01-26T06:03:17.111Z,6.53
2023-01-26T06:05:52.031Z,7.35
2023-01-26T06:08:24.548Z,4.15
2023-01-26T06:11:24.865Z,7.05
2023-01-26T06:14:11.439Z,6.15
2023-01-26T06:16:39.407Z,9.02
2023-01-26T06:19:10.954Z,5.50
2023-01-26T06:21:40.247Z,9.20
2023-01-26T06:24:08.451Z,10.85
2023-01-26T06:26:36.220Z,8.00
2023-01-26T06:29:04.162Z,8.65
2023-01-26T06:31:37.363Z,11.18
2023-01-26T06:34:06.706Z,6.72
2023-01-26T06:36:39.183Z,10.05
2023-01-26T06:39:11.674Z,7.90
2023-01-26T06:41:42.379Z,6.95
2023-01-26T06:44:10.875Z,7.63
2023-01-26T06:46:39.565Z,9.13
2023-01-26T06:49:07.633Z,12.45
2023-01-26T06:51:48.109Z,10.70
2023-01-26T06:54:17.200Z,11.10
2023-01-26T06:57:01.303Z,11.25
2023-01-26T06:59:50.304Z,10.68
2023-01-26T07:02:23.662Z,10.45
2023-01-26T07:04:52.613Z,9.07
2023-01-26T07:07:20.205Z,14.30
2023-01-26T07:09:48.293Z,18.17
2023-01-26T07:12:15.909Z,17.30
2023-01-26T07:14:43.872Z,14.50
2023-01-26T07:17:54.192Z,11.93
2023-01-26T07:21:25.066Z,20.08
2023-01-26T07:23:53.438Z,14.27
2023-01-26T07:26:21.521Z,11.23
2023-01-26T07:28:49.260Z,11.98
2023-01-26T07:31:17.528Z,10.52
2023-01-26T07:33:45.227Z,11.80
2023-01-26T07:36:13.067Z,13.30
2023-01-26T07:38:41.671Z,12.82
2023-01-26T07:41:12.999Z,15.23
2023-01-26T07:43:42.271Z,11.80
2023-01-26T07:46:32.279Z,15.13
2023-01-26T07:49:04.880Z,10.95
2023-01-26T07:51:44.764Z,11.65
2023-01-26T07:54:39.555Z,13.75
2023-01-26T07:57:09.226Z,14.90
2023-01-26T07:59:36.941Z,12.38
2023-01-26T08:02:04.838Z,13.27
2023-01-26T08:04:32.465Z,12.95
2023-01-26T08:07:00.558Z,10.88
2023-01-26T08:09:28.208Z,11.32
2023-01-26T08:11:59.503Z,11.52
2023-01-26T08:14:38.198Z,13.05
2023-01-26T08:17:13.186Z,11.60
2023-01-26T08:19:40.684Z,14.43
2023-01-26T08:22:08.618Z,11.82
2023-01-26T08:24:36.175Z,15.05
2023-01-26T08:27:04.557Z,12.68
2023-01-26T08:29:32.175Z,11.43
2023-01-26T08:32:00.188Z,12.48
2023-01-26T08:34:27.868Z,21.10
2023-01-26T08:36:55.907Z,17.08
2023-01-26T08:39:23.490Z,19.30
2023-01-26T08:41:51.468Z,20.00
2023-01-26T08:44:19.183Z,13.45
2023-01-26T08:46:47.259Z,14.50
2023-01-26T08:49:15.045Z,15.52
2023-01-26T08:51:43.252Z,13.38
2023-01-26T08:54:10.773Z,13.68
2023-01-26T08:56:38.919Z,16.65
2023-01-26T08:59:06.551Z,10.85
2023-01-26T09:01:34.572Z,13.93
2023-01-26T09:04:03.104Z,15.25
2023-01-26T09:06:33.163Z,15.35
2023-01-26T09:09:00.967Z,13.93
2023-01-26T09:11:29.159Z,17.13
2023-01-26T09:13:56.972Z,16.27
2023-01-26T09:16:25.591Z,15.15
2023-01-26T09:18:54.276Z,12.93
2023-01-26T09:21:24.281Z,10.63
2023-01-26T09:23:52.822Z,14.93
2023-01-26T09:26:20.926Z,10.50
2023-01-26T09:28:53.114Z,12.38
2023-01-26T09:31:21.674Z,14.30
2023-01-26T09:33:50.860Z,16.02
2023-01-26T09:36:19.526Z,10.38
2023-01-26T09:38:47.277Z,7.22
2023-01-26T09:41:42.909Z,9.85
2023-01-26T09:44:24.945Z,10.23
2023-01-26T09:47:01.425Z,8.73
2023-01-26T09:49:51.596Z,10.55
2023-01-26T09:52:35.471Z,13.85
2023-01-26T09:55:15.964Z,11.60
2023-01-26T09:57:50.803Z,13.75
2023-01-26T10:00:31.301Z,16.35
2023-01-26T10:03:29.410Z,8.05
2023-01-26T10:06:13.565Z,9.88
2023-01-26T10:09:08.560Z,9.52
2023-01-26T10:11:51.095Z,11.13
2023-01-26T10:14:44.516Z,9.48
2023-01-26T10:17:22.158Z,10.52
2023-01-26T10:19:57.269Z,11.00
2023-01-26T10:22:44.883Z,17.08
2023-01-26T10:25:21.490Z,9.55
2023-01-26T10:27:49.032Z,10.77
2023-01-26T10:30:19.813Z,10.43
2023-01-26T10:32:52.813Z,8.23
2023-01-26T10:35:24.666Z,7.35
2023-01-26T10:37:53.313Z,6.53
2023-01-26T10:40:21.779Z,8.68
2023-01-26T10:43:01.876Z,10.10
2023-01-26T10:45:33.526Z,5.28
2023-01-26T10:48:19.734Z,6.22
2023-01-26T10:50:48.705Z,7.00
2023-01-26T10:53:24.771Z,4.15
2023-01-26T10:56:16.068Z,5.57
2023-01-26T10:58:47.406Z,5.40
2023-01-26T11:01:18.748Z,8.35
2023-01-26T11:04:10.323Z,13.93
2023-01-26T11:06:38.922Z,13.15
2023-01-26T11:09:31.842Z,11.52
2023-01-26T11:12:08.446Z,7.35
2023-01-26T11:14:36.163Z,11.68
2023-01-26T11:17:37.329Z,7.70
2023-01-26T11:20:31.152Z,5.15
2023-01-26T11:23:07.850Z,5.90
2023-01-26T11:26:17.048Z,3.60
2023-01-26T11:29:15.504Z,9.65
2023-01-26T11:32:04.089Z,9.73
2023-01-26T11:34:54.272Z,16.88
2023-01-26T11:37:48.669Z,13.90
2023-01-26T11:40:35.152Z,21.85
2023-01-26T11:43:32.924Z,35.45
2023-01-26T11:46:25.295Z,73.68
2023-01-26T11:49:34.746Z,139.27
2023-01-26T11:52:44.227Z,73.63
2023-01-26T11:55:42.669Z,75.10
2023-01-26T11:58:48.307Z,63.88
2023-01-26T12:01:41.556Z,36.38
2023-01-26T12:04:20.146Z,37.60
2023-01-26T12:07:03.687Z,43.30
2023-01-26T12:09:42.792Z,63.42
2023-01-26T12:12:43.182Z,111.55
2023-01-26T12:15:32.300Z,151.40
2023-01-26T12:18:17.385Z,70.72
2023-01-26T12:20:58.920Z,53.25
2023-01-26T12:23:51.376Z,65.82
2023-01-26T12:26:23.272Z,29.30
2023-01-26T12:29:27.909Z,17.60
2023-01-26T12:32:11.200Z,20.08
2023-01-26T12:34:38.850Z,25.08
2023-01-26T12:37:24.579Z,18.90
2023-01-26T12:40:50.434Z,21.55
2023-01-26T12:43:44.591Z,30.38
2023-01-26T12:46:14.158Z,13.15
2023-01-26T12:49:17.376Z,11.95
2023-01-26T12:51:53.867Z,9.07
2023-01-26T12:54:45.611Z,9.82
2023-01-26T12:57:21.221Z,12.30
2023-01-26T12:59:50.169Z,9.32
2023-01-26T13:02:27.358Z,6.70
2023-01-26T13:05:01.670Z,7.20
2023-01-26T13:07:37.315Z,10.88
2023-01-26T13:10:28.003Z,7.18
2023-01-26T13:13:20.971Z,9.10
2023-01-26T13:16:15.401Z,15.48
2023-01-26T13:18:52.037Z,31.15
2023-01-26T13:21:38.402Z,32.28
2023-01-26T13:24:17.947Z,34.30
2023-01-26T13:26:59.684Z,51.55
2023-01-26T13:29:32.952Z,61.63
2023-01-26T13:32:20.793Z,54.03
2023-01-26T13:34:54.584Z,45.65
2023-01-26T13:37:36.722Z,40.90
2023-01-26T13:40:20.468Z,29.05
2023-01-26T13:43:26.754Z,25.55
2023-01-26T13:46:26.936Z,21.88
2023-01-26T13:48:57.066Z,27.50
2023-01-26T13:51:29.078Z,25.33
2023-01-26T13:54:04.536Z,13.90
2023-01-26T13:57:05.160Z,18.83
2023-01-26T13:59:34.158Z,23.50
2023-01-26T14:02:01.732Z,23.23
2023-01-26T14:04:32.328Z,21.17
2023-01-26T14:07:19.020Z,23.58
2023-01-26T14:09:55.918Z,27.85
2023-01-26T14:12:47.163Z,22.00
2023-01-26T14:15:30.870Z,25.05
2023-01-26T14:18:05.210Z,22.50
2023-01-26T14:20:40.217Z,18.13
2023-01-26T14:23:19.097Z,23.63
2023-01-26T14:26:01.097Z,23.08
2023-01-26T14:28:34.792Z,28.13
2023-01-26T14:31:13.066Z,20.55
2023-01-26T14:33:40.882Z,20.63
2023-01-26T14:36:17.560Z,19.60
2023-01-26T14:38:48.884Z,12.40
2023-01-26T14:41:19.666Z,15.80
2023-01-26T14:43:51.493Z,13.55
2023-01-26T14:46:42.226Z,16.35
2023-01-26T14:49:42.862Z,14.50
2023-01-26T14:52:30.561Z,19.13
2023-01-26T14:55:04.575Z,16.63
2023-01-26T14:57:32.890Z,18.55
2023-01-26T15:00:02.610Z,19.63
2023-01-26T15:02:42.790Z,20.25
2023-01-26T15:05:23.576Z,23.33
2023-01-26T15:08:03.687Z,26.92
2023-01-26T15:10:43.263Z,21.05
2023-01-26T15:13:11.173Z,20.98
2023-01-26T15:15:43.146Z,19.50
2023-01-26T15:18:13.985Z,15.70
2023-01-26T15:20:51.183Z,11.77
2023-01-26T15:23:29.222Z,13.90
2023-01-26T15:26:23.939Z,17.80
2023-01-26T15:28:54.474Z,12.25
2023-01-26T15:31:36.338Z,17.20
2023-01-26T15:34:06.593Z,10.35
2023-01-26T15:36:54.575Z,10.05
2023-01-26T15:39:22.481Z,12.07
2023-01-26T15:42:15.741Z,8.18
2023-01-26T15:44:43.819Z,7.95
2023-01-26T15:47:13.916Z,8.55
2023-01-26T15:49:42.936Z,11.65
2023-01-26T15:54:53.976Z,9.52
2023-01-26T15:57:21.599Z,8.50
2023-01-26T15:59:49.667Z,8.98
2023-01-26T16:02:21.517Z,10.75
2023-01-26T16:04:49.689Z,14.95
2023-01-26T16:07:19.509Z,16.88
2023-01-26T16:09:49.265Z,11.02
2023-01-26T16:15:02.067Z,14.05
2023-01-26T16:17:30.029Z,14.27
2023-01-26T16:19:57.971Z,14.80
2023-01-26T16:22:25.605Z,15.75
2023-01-26T16:24:53.770Z,16.05
2023-01-26T16:27:21.765Z,21.95
2023-01-26T16:29:49.725Z,22.85
2023-01-26T16:32:29.055Z,19.67
2023-01-26T16:34:57.200Z,22.98
2023-01-26T16:37:24.880Z,18.85
2023-01-26T16:39:53.316Z,18.13
2023-01-26T16:42:21.779Z,23.67
2023-01-26T16:44:50.042Z,20.88
2023-01-26T16:47:17.585Z,19.60
2023-01-26T16:49:45.563Z,16.67
2023-01-26T16:52:13.030Z,20.42
2023-01-26T16:54:40.796Z,19.92
2023-01-26T16:57:09.096Z,21.90
2023-01-26T16:59:36.970Z,27.20
2023-01-26T17:02:04.734Z,23.30
2023-01-26T17:04:32.629Z,26.63
2023-01-26T17:07:00.198Z,22.50
2023-01-26T17:09:28.691Z,19.92
2023-01-26T17:11:56.317Z,21.67
2023-01-26T17:14:24.572Z,24.60
2023-01-26T17:16:52.238Z,23.60
2023-01-26T17:19:21.185Z,24.85
2023-01-26T17:21:52.296Z,25.75
2023-01-26T17:24:20.602Z,26.77
2023-01-26T17:26:48.300Z,26.20
2023-01-26T17:29:16.240Z,24.00
2023-01-26T17:31:43.830Z,20.17
2023-01-26T17:34:12.523Z,20.00
2023-01-26T17:36:40.194Z,17.42
2023-01-26T17:39:10.178Z,18.05
2023-01-26T17:41:37.653Z,18.30
2023-01-26T17:44:05.416Z,16.52
2023-01-26T17:46:32.879Z,23.63
2023-01-26T17:49:00.647Z,19.98
2023-01-26T17:51:28.201Z,21.17
2023-01-26T17:53:56.321Z,21.17
2023-01-26T17:56:24.971Z,22.65
2023-01-26T17:58:57.013Z,20.90
2023-01-26T18:01:26.211Z,24.60
2023-01-26T18:06:21.870Z,28.52
2023-01-26T18:08:49.705Z,26.70
2023-01-26T18:11:17.896Z,32.03
2023-01-26T18:13:45.687Z,26.42
2023-01-26T18:16:20.122Z,35.00
2023-01-26T18:18:48.741Z,27.33
2023-01-26T18:21:27.126Z,32.40
2023-01-26T18:23:59.977Z,33.17
2023-01-26T18:26:34.378Z,32.20
2023-01-26T18:29:03.337Z,23.80
2023-01-26T18:31:37.366Z,19.60
2023-01-26T18:34:05.458Z,18.08
2023-01-26T18:36:33.036Z,20.00
2023-01-26T18:39:08.775Z,21.67
2023-01-26T18:41:36.346Z,21.67
2023-01-26T18:44:04.437Z,20.65
2023-01-26T18:46:32.114Z,22.25
2023-01-26T18:49:03.600Z,22.17
2023-01-26T18:51:34.916Z,17.77
2023-01-26T18:54:04.319Z,22.27
2023-01-26T18:56:32.584Z,25.85
2023-01-26T18:59:00.425Z,21.40
2023-01-26T19:01:28.063Z,22.77
2023-01-26T19:03:57.893Z,23.95
2023-01-26T19:06:26.762Z,21.80
2023-01-26T19:11:36.134Z,23.23
2023-01-26T19:14:06.006Z,21.63
2023-01-26T19:16:35.199Z,22.88
2023-01-26T19:19:03.088Z,19.27
2023-01-26T19:21:33.657Z,17.58
2023-01-26T19:24:07.928Z,20.50
2023-01-26T19:26:35.924Z,21.55
2023-01-26T19:29:04.489Z,18.98
2023-01-26T19:31:35.147Z,19.65
2023-01-26T19:34:06.639Z,19.27
2023-01-26T19:36:36.711Z,22.38
2023-01-26T19:39:05.801Z,21.90
2023-01-26T19:41:35.276Z,22.45
2023-01-26T19:44:02.796Z,24.65
2023-01-26T19:46:30.807Z,20.08
2023-01-26T19:48:58.276Z,25.52
2023-01-26T19:51:27.416Z,21.08
2023-01-26T19:53:58.572Z,21.02
2023-01-26T19:56:35.134Z,25.23
2023-01-26T19:59:07.861Z,23.90
2023-01-26T20:01:37.192Z,26.55
2023-01-26T20:04:13.932Z,26.95
2023-01-26T20:06:42.749Z,26.08
2023-01-26T20:09:10.824Z,23.88
2023-01-26T20:11:38.776Z,22.77
2023-01-26T20:14:10.000Z,23.90
2023-01-26T20:16:38.354Z,26.17
2023-01-26T20:19:06.399Z,27.88
2023-01-26T20:21:35.701Z,26.63
2023-01-26T20:24:06.126Z,25.00
2023-01-26T20:26:36.064Z,29.58
2023-01-26T20:29:05.149Z,31.65
2023-01-26T20:31:33.839Z,29.50
2023-01-26T20:34:02.179Z,28.05
2023-01-26T20:36:31.514Z,26.58
2023-01-26T20:38:59.333Z,26.25
2023-01-26T20:41:30.749Z,25.10
2023-01-26T20:44:03.603Z,25.83
2023-01-26T20:46:40.853Z,26.50
2023-01-26T20:49:16.105Z,26.13
2023-01-26T20:51:46.459Z,19.13
2023-01-26T20:56:45.842Z,18.52
2023-01-26T20:59:13.676Z,23.75
2023-01-26T21:01:41.528Z,25.50
2023-01-26T21:04:09.117Z,22.48
2023-01-26T21:06:37.645Z,22.65
2023-01-26T21:09:05.585Z,22.73
2023-01-26T21:11:34.270Z,22.17
2023-01-26T21:14:02.641Z,24.35
2023-01-26T21:16:33.009Z,21.50
2023-01-26T21:19:00.638Z,24.45
2023-01-26T21:21:28.851Z,17.38
2023-01-26T21:23:56.638Z,12.65
2023-01-26T21:26:44.924Z,16.25
2023-01-26T21:29:17.126Z,17.83
2023-01-26T21:32:03.243Z,16.17
2023-01-26T21:34:34.798Z,13.07
2023-01-26T21:37:05.267Z,17.25
2023-01-26T21:40:14.606Z,12.68
2023-01-26T21:43:16.546Z,15.75
2023-01-26T21:46:28.135Z,19.63
2023-01-26T21:49:47.001Z,16.73
2023-01-26T21:52:58.581Z,16.75
2023-01-26T21:55:53.327Z,14.48
2023-01-26T21:59:05.212Z,17.02
2023-01-26T22:01:40.656Z,17.88
2023-01-26T22:04:58.069Z,17.30
2023-01-26T22:08:21.810Z,16.42
2023-01-26T22:15:09.345Z,14.73
2023-01-26T22:18:16.885Z,17.27
2023-01-26T22:22:03.294Z,22.20
2023-01-26T22:25:50.817Z,19.25
2023-01-26T22:28:56.541Z,15.18
2023-01-26T22:32:08.884Z,16.67
2023-01-26T22:34:45.444Z,16.10
2023-01-26T22:37:14.825Z,16.42
2023-01-26T22:39:54.492Z,17.75
2023-01-26T22:42:37.798Z,20.77
2023-01-26T22:45:22.225Z,19.70
2023-01-26T22:48:00.758Z,18.93
2023-01-26T22:50:44.222Z,17.85
2023-01-26T22:53:26.573Z,17.90
2023-01-26T22:56:25.452Z,21.23
2023-01-26T22:59:09.743Z,22.10
2023-01-26T23:01:51.355Z,20.02
2023-01-26T23:04:28.238Z,23.90
2023-01-26T23:07:05.689Z,22.73
2023-01-26T23:09:43.441Z,25.30
2023-01-26T23:12:12.028Z,22.83
2023-01-26T23:14:39.909Z,21.20
2023-01-26T23:17:08.322Z,24.58
2023-01-26T23:19:36.454Z,24.75
2023-01-26T23:22:04.681Z,23.42
2023-01-26T23:24:32.636Z,23.63
2023-01-26T23:27:00.307Z,20.27
2023-01-26T23:29:28.269Z,22.55
2023-01-26T23:36:19.128Z,22.58
2023-01-26T23:38:54.491Z,19.02
2023-01-26T23:41:23.392Z,24.75
2023-01-26T23:43:52.199Z,25.75
2023-01-26T23:47:00.577Z,23.67
2023-01-26T23:49:38.748Z,21.30
2023-01-26T23:53:28.478Z,23.48
2023-01-26T23:56:18.208Z,24.20
2023-01-26T23:58:46.904Z,20.98
